Parma — V2OZ9 — position and weather

sailwx.info

Track history (hours):
 
Tides and Currents Weather Stations Pressure Air Temp Water Temp Dewpoint Dewpoint Depression Visibility Wind Speed Wind Dir Waves Ship Positions

Parma

Last reported at 2014-Oct-16 15:27 UTC. Time now 2014-Oct-23 08:42 UTC.
Position N 54°02' W 006°07'.

MMSI: 279073176.

Date/timePositionNaut miles runAvg speedWind from/ knotsBaromVisibWave heightAir tempDewpointWater temp
2014-Oct-16 15:27N 54°02' W 006°07'227 8.3
2014-Oct-15 12:06N 50°15' W 006°31'  
2014-Oct-11 17:33N 37°50' W 009°34'10 9.7
2014-Oct-11 16:31N 37°41' W 009°32'9 9.6
2014-Oct-11 15:33N 37°32' W 009°29'9 9.4
2014-Oct-11 14:33N 37°23' W 009°26'10 9.2
2014-Oct-11 13:28N 37°13' W 009°23'48 8.1
2014-Oct-11 07:33N 36°39' W 008°42'38 9.3
2014-Oct-11 03:30N 36°26' W 007°57'127 8.3
2014-Oct-10 12:04N 35°58' W 005°23'4 8.2
2014-Oct-10 11:33N 35°55' W 005°20'2 1.9
2014-Oct-10 10:33N 35°54' W 005°18'0 0.0
2014-Oct-10 09:33N 35°54' W 005°18'0 0.0
2014-Oct-10 08:33N 35°54' W 005°18'0 0.0
2014-Oct-10 07:33N 35°54' W 005°18'1 1.1
2014-Oct-10 06:33N 35°55' W 005°19'1 0.7
2014-Oct-10 05:33N 35°54' W 005°20'0 0.1
2014-Oct-10 04:33N 35°54' W 005°20'0 0.0
2014-Oct-10 03:33N 35°54' W 005°20'0 0.1
2014-Oct-10 02:33N 35°55' W 005°20'0 0.1
2014-Oct-10 01:33N 35°55' W 005°20'0 0.0
2014-Oct-10 00:33N 35°54' W 005°20'0 0.0
2014-Oct-09 23:33N 35°54' W 005°20'0 0.0
2014-Oct-09 22:33N 35°54' W 005°20'0 0.0
2014-Oct-09 21:33N 35°54' W 005°20'0 0.1
2014-Oct-09 20:33N 35°55' W 005°20'0 0.1
2014-Oct-09 19:33N 35°54' W 005°20'0 0.0
2014-Oct-09 18:33N 35°54' W 005°20'0 0.1
2014-Oct-09 17:33N 35°54' W 005°20'0 0.0
2014-Oct-09 16:33N 35°54' W 005°20'0 0.0
2014-Oct-09 15:33N 35°54' W 005°20'0 0.0
2014-Oct-09 14:33N 35°54' W 005°20'0 0.1
2014-Oct-09 13:33N 35°54' W 005°20'0 0.1
2014-Oct-09 12:33N 35°55' W 005°20'0 0.0
2014-Oct-09 11:33N 35°55' W 005°20'0 0.0
2014-Oct-09 10:33N 35°55' W 005°20'0 0.0
2014-Oct-09 09:33N 35°54' W 005°20'0 0.0
2014-Oct-09 08:33N 35°54' W 005°20'0 0.0
2014-Oct-09 07:33N 35°55' W 005°20'0 0.0
2014-Oct-09 06:33N 35°54' W 005°20'197 6.3
2014-Oct-07 23:28N 36°32' W 001°20'15 7.4
2014-Oct-07 21:28N 36°34' W 001°02'8 7.3
2014-Oct-07 20:19N 36°36' W 000°51'5 7.0
2014-Oct-07 19:33N 36°37' W 000°45'16 7.5
2014-Oct-07 17:28N 36°39' W 000°26'91 8.3
2014-Oct-07 06:33N 36°53' E 001°27'47 8.8
2014-Oct-07 01:13N 36°60' E 002°25'16 9.1
2014-Oct-06 23:29N 37°02' E 002°45'37 9.1
2014-Oct-06 19:23N 37°08' E 003°31'  
Track history (hours):
 
Tides and Currents Weather Stations Pressure Air Temp Water Temp Dewpoint Dewpoint Depression Visibility Wind Speed Wind Dir Waves Ship Positions

Parma

Last reported at 2014-Oct-16 15:27 UTC. Time now 2014-Oct-23 08:42 UTC.
Position N 54°02' W 006°07'.

MMSI: 279073176.

Date/timePositionNaut miles runAvg speedWind from/ knotsBaromVisibWave heightAir tempDewpointWater temp
2014-Oct-16 15:27N 54°02' W 006°07'227 8.3
2014-Oct-15 12:06N 50°15' W 006°31'  
2014-Oct-11 17:33N 37°50' W 009°34'10 9.7
2014-Oct-11 16:31N 37°41' W 009°32'9 9.6
2014-Oct-11 15:33N 37°32' W 009°29'9 9.4
2014-Oct-11 14:33N 37°23' W 009°26'10 9.2
2014-Oct-11 13:28N 37°13' W 009°23'48 8.1
2014-Oct-11 07:33N 36°39' W 008°42'38 9.3
2014-Oct-11 03:30N 36°26' W 007°57'127 8.3
2014-Oct-10 12:04N 35°58' W 005°23'4 8.2
2014-Oct-10 11:33N 35°55' W 005°20'2 1.9
2014-Oct-10 10:33N 35°54' W 005°18'0 0.0
2014-Oct-10 09:33N 35°54' W 005°18'0 0.0
2014-Oct-10 08:33N 35°54' W 005°18'0 0.0
2014-Oct-10 07:33N 35°54' W 005°18'1 1.1
2014-Oct-10 06:33N 35°55' W 005°19'1 0.7
2014-Oct-10 05:33N 35°54' W 005°20'0 0.1
2014-Oct-10 04:33N 35°54' W 005°20'0 0.0
2014-Oct-10 03:33N 35°54' W 005°20'0 0.1
2014-Oct-10 02:33N 35°55' W 005°20'0 0.1
2014-Oct-10 01:33N 35°55' W 005°20'0 0.0
2014-Oct-10 00:33N 35°54' W 005°20'0 0.0
2014-Oct-09 23:33N 35°54' W 005°20'0 0.0
2014-Oct-09 22:33N 35°54' W 005°20'0 0.0
2014-Oct-09 21:33N 35°54' W 005°20'0 0.1
2014-Oct-09 20:33N 35°55' W 005°20'0 0.1
2014-Oct-09 19:33N 35°54' W 005°20'0 0.0
2014-Oct-09 18:33N 35°54' W 005°20'0 0.1
2014-Oct-09 17:33N 35°54' W 005°20'0 0.0
2014-Oct-09 16:33N 35°54' W 005°20'0 0.0
2014-Oct-09 15:33N 35°54' W 005°20'0 0.0
2014-Oct-09 14:33N 35°54' W 005°20'0 0.1
2014-Oct-09 13:33N 35°54' W 005°20'0 0.1
2014-Oct-09 12:33N 35°55' W 005°20'0 0.0
2014-Oct-09 11:33N 35°55' W 005°20'0 0.0
2014-Oct-09 10:33N 35°55' W 005°20'0 0.0
2014-Oct-09 09:33N 35°54' W 005°20'0 0.0
2014-Oct-09 08:33N 35°54' W 005°20'0 0.0
2014-Oct-09 07:33N 35°55' W 005°20'0 0.0
2014-Oct-09 06:33N 35°54' W 005°20'197 6.3
2014-Oct-07 23:28N 36°32' W 001°20'15 7.4
2014-Oct-07 21:28N 36°34' W 001°02'8 7.3
2014-Oct-07 20:19N 36°36' W 000°51'5 7.0
2014-Oct-07 19:33N 36°37' W 000°45'16 7.5
2014-Oct-07 17:28N 36°39' W 000°26'91 8.3
2014-Oct-07 06:33N 36°53' E 001°27'47 8.8
2014-Oct-07 01:13N 36°60' E 002°25'16 9.1
2014-Oct-06 23:29N 37°02' E 002°45'37 9.1
2014-Oct-06 19:23N 37°08' E 003°31'  

Dump ship's entire track history